sensor_id;sensor_type;location;lat;lon;timestamp;temperature;humidity
837;DHT22;400;53.550;9.932;2023-08-01T00:01:00;18.00;99.90
837;DHT22;400;53.550;9.932;2023-08-01T00:03:31;18.00;99.90
837;DHT22;400;53.550;9.932;2023-08-01T00:05:58;17.90;99.90
837;DHT22;400;53.550;9.932;2023-08-01T00:08:26;17.90;99.90
837;DHT22;400;53.550;9.932;2023-08-01T00:10:53;17.80;99.90
837;DHT22;400;53.550;9.932;2023-08-01T00:13:20;17.70;99.90
837;DHT22;400;53.550;9.932;2023-08-01T00:15:47;17.80;99.90
837;DHT22;400;53.550;9.932;2023-08-01T00:18:14;17.80;99.90
837;DHT22;400;53.550;9.932;2023-08-01T00:20:41;17.80;99.90
837;DHT22;400;53.550;9.932;2023-08-01T00:23:08;17.80;99.90
837;DHT22;400;53.550;9.932;2023-08-01T00:25:36;17.90;99.90
837;DHT22;400;53.550;9.932;2023-08-01T00:28:03;17.90;99.90
837;DHT22;400;53.550;9.932;2023-08-01T00:30:30;18.00;99.90
837;DHT22;400;53.550;9.932;2023-08-01T00:32:57;17.90;99.90
837;DHT22;400;53.550;9.932;2023-08-01T00:35:24;17.90;99.90
837;DHT22;400;53.550;9.932;2023-08-01T00:37:51;17.80;99.90
837;DHT22;400;53.550;9.932;2023-08-01T00:40:18;17.80;99.90
837;DHT22;400;53.550;9.932;2023-08-01T00:42:46;17.80;99.90
837;DHT22;400;53.550;9.932;2023-08-01T00:45:14;17.80;99.90
837;DHT22;400;53.550;9.932;2023-08-01T00:47:43;17.90;99.90
837;DHT22;400;53.550;9.932;2023-08-01T00:50:10;17.90;99.90
837;DHT22;400;53.550;9.932;2023-08-01T00:52:37;18.00;99.90
837;DHT22;400;53.550;9.932;2023-08-01T00:55:04;17.90;99.90
837;DHT22;400;53.550;9.932;2023-08-01T00:57:32;17.90;99.90
837;DHT22;400;53.550;9.932;2023-08-01T01:00:00;18.00;99.90
837;DHT22;400;53.550;9.932;2023-08-01T01:02:27;17.90;99.90
837;DHT22;400;53.550;9.932;2023-08-01T01:04:54;17.90;99.90
837;DHT22;400;53.550;9.932;2023-08-01T01:07:22;17.80;99.90
837;DHT22;400;53.550;9.932;2023-08-01T01:09:50;17.80;99.90
837;DHT22;400;53.550;9.932;2023-08-01T01:12:17;17.70;99.90
837;DHT22;400;53.550;9.932;2023-08-01T01:14:44;17.80;99.90
837;DHT22;400;53.550;9.932;2023-08-01T01:17:12;17.70;99.90
837;DHT22;400;53.550;9.932;2023-08-01T01:19:39;17.70;99.90
837;DHT22;400;53.550;9.932;2023-08-01T01:22:09;17.70;99.90
837;DHT22;400;53.550;9.932;2023-08-01T01:24:37;17.70;99.90
837;DHT22;400;53.550;9.932;2023-08-01T01:27:06;17.80;99.90
837;DHT22;400;53.550;9.932;2023-08-01T01:29:34;17.70;99.90
837;DHT22;400;53.550;9.932;2023-08-01T01:32:01;17.80;99.90
837;DHT22;400;53.550;9.932;2023-08-01T01:34:29;17.80;99.90
837;DHT22;400;53.550;9.932;2023-08-01T01:36:56;17.80;99.90
837;DHT22;400;53.550;9.932;2023-08-01T01:39:25;17.80;99.90
837;DHT22;400;53.550;9.932;2023-08-01T01:41:52;17.80;99.90
837;DHT22;400;53.550;9.932;2023-08-01T01:44:18;17.80;99.90
837;DHT22;400;53.550;9.932;2023-08-01T01:46:45;17.80;99.90
837;DHT22;400;53.550;9.932;2023-08-01T01:52:37;17.80;99.90
837;DHT22;400;53.550;9.932;2023-08-01T01:55:05;17.80;99.90
837;DHT22;400;53.550;9.932;2023-08-01T01:57:32;17.80;99.90
837;DHT22;400;53.550;9.932;2023-08-01T02:00:01;17.80;99.90
837;DHT22;400;53.550;9.932;2023-08-01T02:02:28;17.80;99.90
837;DHT22;400;53.550;9.932;2023-08-01T02:04:56;17.70;99.90
837;DHT22;400;53.550;9.932;2023-08-01T02:07:22;17.70;99.90
837;DHT22;400;53.550;9.932;2023-08-01T02:09:49;17.70;99.90
837;DHT22;400;53.550;9.932;2023-08-01T02:12:17;17.70;99.90
837;DHT22;400;53.550;9.932;2023-08-01T02:14:44;17.70;99.90
837;DHT22;400;53.550;9.932;2023-08-01T02:17:11;17.70;99.90
837;DHT22;400;53.550;9.932;2023-08-01T02:19:38;17.80;99.90
837;DHT22;400;53.550;9.932;2023-08-01T02:22:05;17.70;99.90
837;DHT22;400;53.550;9.932;2023-08-01T02:24:33;17.70;99.90
837;DHT22;400;53.550;9.932;2023-08-01T02:27:00;17.70;99.90
837;DHT22;400;53.550;9.932;2023-08-01T02:29:28;17.70;99.90
837;DHT22;400;53.550;9.932;2023-08-01T02:31:55;17.70;99.90
837;DHT22;400;53.550;9.932;2023-08-01T02:34:22;17.70;99.90
837;DHT22;400;53.550;9.932;2023-08-01T02:36:49;17.70;99.90
837;DHT22;400;53.550;9.932;2023-08-01T02:39:17;17.70;99.90
837;DHT22;400;53.550;9.932;2023-08-01T02:41:44;17.60;99.90
837;DHT22;400;53.550;9.932;2023-08-01T02:44:11;17.70;99.90
837;DHT22;400;53.550;9.932;2023-08-01T02:46:39;17.70;99.90
837;DHT22;400;53.550;9.932;2023-08-01T02:49:06;17.70;99.90
837;DHT22;400;53.550;9.932;2023-08-01T02:51:33;17.70;99.90
837;DHT22;400;53.550;9.932;2023-08-01T02:54:00;17.70;99.90
837;DHT22;400;53.550;9.932;2023-08-01T02:56:27;17.70;99.90
837;DHT22;400;53.550;9.932;2023-08-01T02:58:54;17.80;99.90
837;DHT22;400;53.550;9.932;2023-08-01T03:01:22;17.90;99.90
837;DHT22;400;53.550;9.932;2023-08-01T03:03:50;17.80;99.90
837;DHT22;400;53.550;9.932;2023-08-01T03:06:17;17.80;99.90
837;DHT22;400;53.550;9.932;2023-08-01T03:08:44;17.80;99.90
837;DHT22;400;53.550;9.932;2023-08-01T03:11:11;17.80;99.90
837;DHT22;400;53.550;9.932;2023-08-01T03:13:40;17.80;99.90
837;DHT22;400;53.550;9.932;2023-08-01T03:16:11;17.80;99.90
837;DHT22;400;53.550;9.932;2023-08-01T03:18:43;17.80;99.90
837;DHT22;400;53.550;9.932;2023-08-01T03:21:11;17.80;99.90
837;DHT22;400;53.550;9.932;2023-08-01T03:23:39;17.80;99.90
837;DHT22;400;53.550;9.932;2023-08-01T03:26:06;17.80;99.90
837;DHT22;400;53.550;9.932;2023-08-01T03:28:32;17.80;99.90
837;DHT22;400;53.550;9.932;2023-08-01T03:30:59;17.70;99.90
837;DHT22;400;53.550;9.932;2023-08-01T03:33:26;17.60;99.90
837;DHT22;400;53.550;9.932;2023-08-01T03:35:53;17.70;99.90
837;DHT22;400;53.550;9.932;2023-08-01T03:38:21;17.70;99.90
837;DHT22;400;53.550;9.932;2023-08-01T03:40:49;17.60;99.90
837;DHT22;400;53.550;9.932;2023-08-01T03:43:16;17.60;99.90
837;DHT22;400;53.550;9.932;2023-08-01T03:45:48;17.60;99.90
837;DHT22;400;53.550;9.932;2023-08-01T03:48:15;17.70;99.90
837;DHT22;400;53.550;9.932;2023-08-01T03:50:42;17.70;99.90
837;DHT22;400;53.550;9.932;2023-08-01T03:53:09;17.70;99.90
837;DHT22;400;53.550;9.932;2023-08-01T03:55:37;17.70;99.90
837;DHT22;400;53.550;9.932;2023-08-01T03:58:04;17.80;99.90
837;DHT22;400;53.550;9.932;2023-08-01T04:00:31;17.70;99.90
837;DHT22;400;53.550;9.932;2023-08-01T04:02:58;17.70;99.90
837;DHT22;400;53.550;9.932;2023-08-01T04:05:25;17.70;99.90
837;DHT22;400;53.550;9.932;2023-08-01T04:07:52;17.70;99.90
837;DHT22;400;53.550;9.932;2023-08-01T04:10:20;17.70;99.90
837;DHT22;400;53.550;9.932;2023-08-01T04:12:48;17.80;99.90
837;DHT22;400;53.550;9.932;2023-08-01T04:15:16;17.80;99.90
837;DHT22;400;53.550;9.932;2023-08-01T04:17:43;17.70;99.90
837;DHT22;400;53.550;9.932;2023-08-01T04:20:10;17.70;99.90
837;DHT22;400;53.550;9.932;2023-08-01T04:22:40;17.70;99.90
837;DHT22;400;53.550;9.932;2023-08-01T04:25:07;17.60;99.90
837;DHT22;400;53.550;9.932;2023-08-01T04:27:34;17.60;99.90
837;DHT22;400;53.550;9.932;2023-08-01T04:30:03;17.60;99.90
837;DHT22;400;53.550;9.932;2023-08-01T04:32:31;17.70;99.90
837;DHT22;400;53.550;9.932;2023-08-01T04:34:58;17.70;99.90
837;DHT22;400;53.550;9.932;2023-08-01T04:37:30;17.80;99.90
837;DHT22;400;53.550;9.932;2023-08-01T04:40:04;17.70;99.90
837;DHT22;400;53.550;9.932;2023-08-01T04:42:37;17.70;99.90
837;DHT22;400;53.550;9.932;2023-08-01T04:45:08;17.70;99.90
837;DHT22;400;53.550;9.932;2023-08-01T04:47:35;17.70;99.90
837;DHT22;400;53.550;9.932;2023-08-01T04:50:02;17.60;99.90
837;DHT22;400;53.550;9.932;2023-08-01T04:52:29;17.50;99.90
837;DHT22;400;53.550;9.932;2023-08-01T04:54:56;17.60;99.90
837;DHT22;400;53.550;9.932;2023-08-01T04:57:23;17.70;99.90
837;DHT22;400;53.550;9.932;2023-08-01T04:59:50;17.70;99.90
837;DHT22;400;53.550;9.932;2023-08-01T05:02:18;17.70;99.90
837;DHT22;400;53.550;9.932;2023-08-01T05:04:45;17.70;99.90
837;DHT22;400;53.550;9.932;2023-08-01T05:07:12;17.70;99.90
837;DHT22;400;53.550;9.932;2023-08-01T05:09:39;17.80;99.90
837;DHT22;400;53.550;9.932;2023-08-01T05:12:08;17.80;99.90
837;DHT22;400;53.550;9.932;2023-08-01T05:14:39;17.80;99.90
837;DHT22;400;53.550;9.932;2023-08-01T05:17:10;17.70;99.90
837;DHT22;400;53.550;9.932;2023-08-01T05:19:40;17.80;99.90
837;DHT22;400;53.550;9.932;2023-08-01T05:22:07;17.70;99.90
837;DHT22;400;53.550;9.932;2023-08-01T05:24:34;17.80;99.90
837;DHT22;400;53.550;9.932;2023-08-01T05:27:01;17.80;99.90
837;DHT22;400;53.550;9.932;2023-08-01T05:29:28;17.80;99.90
837;DHT22;400;53.550;9.932;2023-08-01T05:31:55;17.80;99.90
837;DHT22;400;53.550;9.932;2023-08-01T05:34:22;17.80;99.90
837;DHT22;400;53.550;9.932;2023-08-01T05:36:50;17.70;99.90
837;DHT22;400;53.550;9.932;2023-08-01T05:39:17;17.70;99.90
837;DHT22;400;53.550;9.932;2023-08-01T05:41:43;17.80;99.90
837;DHT22;400;53.550;9.932;2023-08-01T05:44:11;17.70;99.90
837;DHT22;400;53.550;9.932;2023-08-01T05:46:37;17.70;99.90
837;DHT22;400;53.550;9.932;2023-08-01T05:49:06;17.80;99.90
837;DHT22;400;53.550;9.932;2023-08-01T05:51:35;17.80;99.90
837;DHT22;400;53.550;9.932;2023-08-01T05:54:06;17.80;99.90
837;DHT22;400;53.550;9.932;2023-08-01T05:56:37;17.90;99.90
837;DHT22;400;53.550;9.932;2023-08-01T05:59:13;17.80;99.80
837;DHT22;400;53.550;9.932;2023-08-01T06:01:46;17.90;99.90
837;DHT22;400;53.550;9.932;2023-08-01T06:04:21;17.90;91.60
837;DHT22;400;53.550;9.932;2023-08-01T06:06:48;17.90;81.40
837;DHT22;400;53.550;9.932;2023-08-01T06:09:16;17.90;61.00
837;DHT22;400;53.550;9.932;2023-08-01T06:11:43;17.90;71.80
837;DHT22;400;53.550;9.932;2023-08-01T06:14:10;17.90;68.30
837;DHT22;400;53.550;9.932;2023-08-01T06:16:37;18.10;41.40
837;DHT22;400;53.550;9.932;2023-08-01T06:19:03;18.20;25.60
837;DHT22;400;53.550;9.932;2023-08-01T06:21:30;18.10;14.90
837;DHT22;400;53.550;9.932;2023-08-01T06:23:57;18.30;31.80
837;DHT22;400;53.550;9.932;2023-08-01T06:26:27;18.20;1.00
837;DHT22;400;53.550;9.932;2023-08-01T06:28:54;18.20;1.00
837;DHT22;400;53.550;9.932;2023-08-01T06:31:21;18.30;1.00
837;DHT22;400;53.550;9.932;2023-08-01T06:33:48;18.30;1.00
837;DHT22;400;53.550;9.932;2023-08-01T06:36:15;18.40;1.00
837;DHT22;400;53.550;9.932;2023-08-01T06:38:43;18.50;1.00
837;DHT22;400;53.550;9.932;2023-08-01T06:41:10;18.50;1.00
837;DHT22;400;53.550;9.932;2023-08-01T06:43:38;18.50;1.00
837;DHT22;400;53.550;9.932;2023-08-01T06:46:05;18.40;1.00
837;DHT22;400;53.550;9.932;2023-08-01T06:48:35;18.10;1.00
837;DHT22;400;53.550;9.932;2023-08-01T06:51:03;18.20;1.00
837;DHT22;400;53.550;9.932;2023-08-01T06:53:30;18.20;1.00
837;DHT22;400;53.550;9.932;2023-08-01T06:55:58;18.10;1.00
837;DHT22;400;53.550;9.932;2023-08-01T06:58:25;18.00;1.00
837;DHT22;400;53.550;9.932;2023-08-01T07:00:53;17.90;1.00
837;DHT22;400;53.550;9.932;2023-08-01T07:03:21;17.70;1.00
837;DHT22;400;53.550;9.932;2023-08-01T07:05:48;17.80;1.00
837;DHT22;400;53.550;9.932;2023-08-01T07:08:16;17.90;1.00
837;DHT22;400;53.550;9.932;2023-08-01T07:10:49;18.00;1.00
837;DHT22;400;53.550;9.932;2023-08-01T07:13:18;18.10;1.00
837;DHT22;400;53.550;9.932;2023-08-01T07:15:45;18.20;1.00
837;DHT22;400;53.550;9.932;2023-08-01T07:18:15;18.40;1.00
837;DHT22;400;53.550;9.932;2023-08-01T07:20:47;18.30;1.00
837;DHT22;400;53.550;9.932;2023-08-01T07:23:14;18.40;1.00
837;DHT22;400;53.550;9.932;2023-08-01T07:25:41;18.20;1.00
837;DHT22;400;53.550;9.932;2023-08-01T07:28:08;18.30;1.00
837;DHT22;400;53.550;9.932;2023-08-01T07:30:34;18.30;1.00
837;DHT22;400;53.550;9.932;2023-08-01T07:33:02;18.20;1.00
837;DHT22;400;53.550;9.932;2023-08-01T07:35:30;18.20;1.00
837;DHT22;400;53.550;9.932;2023-08-01T07:37:57;18.20;1.00
837;DHT22;400;53.550;9.932;2023-08-01T07:40:25;18.20;1.00
837;DHT22;400;53.550;9.932;2023-08-01T07:42:52;18.40;1.00
837;DHT22;400;53.550;9.932;2023-08-01T07:45:22;18.60;1.00
837;DHT22;400;53.550;9.932;2023-08-01T07:47:55;18.70;1.00
837;DHT22;400;53.550;9.932;2023-08-01T07:50:23;18.80;1.00
837;DHT22;400;53.550;9.932;2023-08-01T07:52:52;18.80;1.00
837;DHT22;400;53.550;9.932;2023-08-01T07:55:19;18.70;1.00
837;DHT22;400;53.550;9.932;2023-08-01T07:57:47;18.80;1.00
837;DHT22;400;53.550;9.932;2023-08-01T08:00:14;18.80;1.00
837;DHT22;400;53.550;9.932;2023-08-01T08:02:42;19.10;1.00
837;DHT22;400;53.550;9.932;2023-08-01T08:05:09;19.00;1.00
837;DHT22;400;53.550;9.932;2023-08-01T08:07:36;19.10;1.00
837;DHT22;400;53.550;9.932;2023-08-01T08:10:08;19.10;1.00
837;DHT22;400;53.550;9.932;2023-08-01T08:12:34;19.10;1.00
837;DHT22;400;53.550;9.932;2023-08-01T08:15:04;18.90;1.00
837;DHT22;400;53.550;9.932;2023-08-01T08:17:34;18.80;1.00
837;DHT22;400;53.550;9.932;2023-08-01T08:20:01;18.90;1.00
837;DHT22;400;53.550;9.932;2023-08-01T08:22:29;18.70;1.00
837;DHT22;400;53.550;9.932;2023-08-01T08:24:58;18.80;1.00
837;DHT22;400;53.550;9.932;2023-08-01T08:27:30;18.70;1.00
837;DHT22;400;53.550;9.932;2023-08-01T08:30:01;18.90;1.00
837;DHT22;400;53.550;9.932;2023-08-01T08:32:32;19.00;1.00
837;DHT22;400;53.550;9.932;2023-08-01T08:35:02;19.10;1.00
837;DHT22;400;53.550;9.932;2023-08-01T08:37:31;19.30;1.00
837;DHT22;400;53.550;9.932;2023-08-01T08:39:58;19.50;1.00
837;DHT22;400;53.550;9.932;2023-08-01T08:42:24;19.50;1.00
837;DHT22;400;53.550;9.932;2023-08-01T08:44:55;19.80;1.00
837;DHT22;400;53.550;9.932;2023-08-01T08:47:25;20.00;1.00
837;DHT22;400;53.550;9.932;2023-08-01T08:49:55;19.90;1.00
837;DHT22;400;53.550;9.932;2023-08-01T08:52:23;20.30;1.00
837;DHT22;400;53.550;9.932;2023-08-01T08:54:51;20.50;1.00
837;DHT22;400;53.550;9.932;2023-08-01T08:57:19;20.50;1.00
837;DHT22;400;53.550;9.932;2023-08-01T08:59:50;20.50;1.00
837;DHT22;400;53.550;9.932;2023-08-01T09:02:23;20.40;1.00
837;DHT22;400;53.550;9.932;2023-08-01T09:04:51;20.00;1.00
837;DHT22;400;53.550;9.932;2023-08-01T09:07:20;19.40;1.00
837;DHT22;400;53.550;9.932;2023-08-01T09:09:50;19.30;1.00
837;DHT22;400;53.550;9.932;2023-08-01T09:12:17;19.30;1.00
837;DHT22;400;53.550;9.932;2023-08-01T09:14:48;18.90;1.00
837;DHT22;400;53.550;9.932;2023-08-01T09:17:16;19.10;1.00
837;DHT22;400;53.550;9.932;2023-08-01T09:19:45;18.90;1.00
837;DHT22;400;53.550;9.932;2023-08-01T09:22:12;18.70;1.00
837;DHT22;400;53.550;9.932;2023-08-01T09:24:50;18.70;1.00
837;DHT22;400;53.550;9.932;2023-08-01T09:27:17;18.60;1.00
837;DHT22;400;53.550;9.932;2023-08-01T09:29:44;18.50;1.00
837;DHT22;400;53.550;9.932;2023-08-01T09:32:14;18.40;1.00
837;DHT22;400;53.550;9.932;2023-08-01T09:34:42;18.20;1.00
837;DHT22;400;53.550;9.932;2023-08-01T09:37:10;18.30;1.00
837;DHT22;400;53.550;9.932;2023-08-01T09:39:37;18.60;1.00
837;DHT22;400;53.550;9.932;2023-08-01T09:42:05;18.70;1.00
837;DHT22;400;53.550;9.932;2023-08-01T09:44:36;18.90;1.00
837;DHT22;400;53.550;9.932;2023-08-01T09:47:06;18.90;1.00
837;DHT22;400;53.550;9.932;2023-08-01T09:49:47;19.00;1.00
837;DHT22;400;53.550;9.932;2023-08-01T09:52:27;19.10;1.00
837;DHT22;400;53.550;9.932;2023-08-01T09:54:53;19.10;1.00
837;DHT22;400;53.550;9.932;2023-08-01T09:57:22;19.00;1.00
837;DHT22;400;53.550;9.932;2023-08-01T09:59:50;19.20;1.00
837;DHT22;400;53.550;9.932;2023-08-01T10:02:19;19.40;1.00
837;DHT22;400;53.550;9.932;2023-08-01T10:04:48;19.70;1.00
837;DHT22;400;53.550;9.932;2023-08-01T10:07:23;19.90;1.00
837;DHT22;400;53.550;9.932;2023-08-01T10:09:50;20.10;1.00
837;DHT22;400;53.550;9.932;2023-08-01T10:12:18;20.40;1.00
837;DHT22;400;53.550;9.932;2023-08-01T10:14:47;20.50;1.00
837;DHT22;400;53.550;9.932;2023-08-01T10:17:18;20.70;1.00
837;DHT22;400;53.550;9.932;2023-08-01T10:19:50;20.90;1.00
837;DHT22;400;53.550;9.932;2023-08-01T10:22:29;21.00;1.00
837;DHT22;400;53.550;9.932;2023-08-01T10:24:59;20.90;1.00
837;DHT22;400;53.550;9.932;2023-08-01T10:27:28;20.50;1.00
837;DHT22;400;53.550;9.932;2023-08-01T10:30:02;20.30;1.00
837;DHT22;400;53.550;9.932;2023-08-01T10:32:32;20.10;1.00
837;DHT22;400;53.550;9.932;2023-08-01T10:34:59;20.00;1.00
837;DHT22;400;53.550;9.932;2023-08-01T10:37:38;19.70;1.00
837;DHT22;400;53.550;9.932;2023-08-01T10:40:07;19.50;1.00
837;DHT22;400;53.550;9.932;2023-08-01T10:42:39;19.60;1.00
837;DHT22;400;53.550;9.932;2023-08-01T10:45:07;19.80;1.00
837;DHT22;400;53.550;9.932;2023-08-01T10:47:34;19.80;1.00
837;DHT22;400;53.550;9.932;2023-08-01T10:50:01;19.90;1.00
837;DHT22;400;53.550;9.932;2023-08-01T10:52:30;20.00;1.00
837;DHT22;400;53.550;9.932;2023-08-01T10:54:59;19.90;1.00
837;DHT22;400;53.550;9.932;2023-08-01T10:57:27;19.80;1.00
837;DHT22;400;53.550;9.932;2023-08-01T10:59:55;19.60;1.00
837;DHT22;400;53.550;9.932;2023-08-01T11:02:23;19.50;1.00
837;DHT22;400;53.550;9.932;2023-08-01T11:04:58;19.20;1.00
837;DHT22;400;53.550;9.932;2023-08-01T11:07:27;18.70;1.00
837;DHT22;400;53.550;9.932;2023-08-01T11:10:06;18.30;1.00
837;DHT22;400;53.550;9.932;2023-08-01T11:12:35;18.00;1.00
837;DHT22;400;53.550;9.932;2023-08-01T11:15:17;17.70;1.00
837;DHT22;400;53.550;9.932;2023-08-01T11:17:47;17.00;1.00
837;DHT22;400;53.550;9.932;2023-08-01T11:20:15;16.70;1.00
837;DHT22;400;53.550;9.932;2023-08-01T11:22:51;16.60;1.00
837;DHT22;400;53.550;9.932;2023-08-01T11:25:30;16.50;1.00
837;DHT22;400;53.550;9.932;2023-08-01T11:28:02;16.60;1.00
837;DHT22;400;53.550;9.932;2023-08-01T11:30:34;16.70;1.00
837;DHT22;400;53.550;9.932;2023-08-01T11:33:14;16.90;1.00
837;DHT22;400;53.550;9.932;2023-08-01T11:35:43;17.00;1.00
837;DHT22;400;53.550;9.932;2023-08-01T11:38:10;17.20;1.00
837;DHT22;400;53.550;9.932;2023-08-01T11:40:39;17.30;1.00
837;DHT22;400;53.550;9.932;2023-08-01T11:43:08;17.50;1.00
837;DHT22;400;53.550;9.932;2023-08-01T11:45:50;17.60;1.00
837;DHT22;400;53.550;9.932;2023-08-01T11:48:18;17.80;1.00
837;DHT22;400;53.550;9.932;2023-08-01T11:50:48;17.80;1.00
837;DHT22;400;53.550;9.932;2023-08-01T11:53:19;17.80;1.00
837;DHT22;400;53.550;9.932;2023-08-01T11:55:49;17.90;1.00
837;DHT22;400;53.550;9.932;2023-08-01T11:58:28;18.00;1.00
837;DHT22;400;53.550;9.932;2023-08-01T12:01:02;18.10;1.00
837;DHT22;400;53.550;9.932;2023-08-01T12:03:29;18.10;1.00
837;DHT22;400;53.550;9.932;2023-08-01T12:06:03;18.10;1.00
837;DHT22;400;53.550;9.932;2023-08-01T12:08:31;18.30;1.00
837;DHT22;400;53.550;9.932;2023-08-01T12:11:00;18.40;1.00
837;DHT22;400;53.550;9.932;2023-08-01T12:13:32;18.60;1.00
837;DHT22;400;53.550;9.932;2023-08-01T12:15:59;18.70;1.00
837;DHT22;400;53.550;9.932;2023-08-01T12:18:27;18.70;1.00
837;DHT22;400;53.550;9.932;2023-08-01T12:20:54;19.00;1.00
837;DHT22;400;53.550;9.932;2023-08-01T12:23:22;19.00;1.00
837;DHT22;400;53.550;9.932;2023-08-01T12:25:50;19.30;1.00
837;DHT22;400;53.550;9.932;2023-08-01T12:28:19;19.50;1.00
837;DHT22;400;53.550;9.932;2023-08-01T12:30:48;19.60;1.00
837;DHT22;400;53.550;9.932;2023-08-01T12:33:21;19.70;1.00
837;DHT22;400;53.550;9.932;2023-08-01T12:35:52;19.50;1.00
837;DHT22;400;53.550;9.932;2023-08-01T12:38:25;19.40;1.00
837;DHT22;400;53.550;9.932;2023-08-01T12:41:01;19.50;1.00
837;DHT22;400;53.550;9.932;2023-08-01T12:43:34;19.50;1.00
837;DHT22;400;53.550;9.932;2023-08-01T12:46:05;19.50;1.00
837;DHT22;400;53.550;9.932;2023-08-01T12:48:33;19.20;1.00
837;DHT22;400;53.550;9.932;2023-08-01T12:51:02;18.70;1.00
837;DHT22;400;53.550;9.932;2023-08-01T12:53:30;18.30;1.00
837;DHT22;400;53.550;9.932;2023-08-01T12:55:57;18.10;1.00
837;DHT22;400;53.550;9.932;2023-08-01T12:58:24;18.20;1.00
837;DHT22;400;53.550;9.932;2023-08-01T13:00:54;18.20;1.00
837;DHT22;400;53.550;9.932;2023-08-01T13:03:22;18.20;1.00
837;DHT22;400;53.550;9.932;2023-08-01T13:05:48;18.30;1.00
837;DHT22;400;53.550;9.932;2023-08-01T13:08:16;18.40;1.00
837;DHT22;400;53.550;9.932;2023-08-01T13:10:43;18.60;1.00
837;DHT22;400;53.550;9.932;2023-08-01T13:13:13;18.70;1.00
837;DHT22;400;53.550;9.932;2023-08-01T13:15:42;18.90;1.00
837;DHT22;400;53.550;9.932;2023-08-01T13:18:15;18.90;1.00
837;DHT22;400;53.550;9.932;2023-08-01T13:20:48;19.10;1.00
837;DHT22;400;53.550;9.932;2023-08-01T13:23:18;19.30;1.00
837;DHT22;400;53.550;9.932;2023-08-01T13:25:45;19.20;1.00
837;DHT22;400;53.550;9.932;2023-08-01T13:28:13;19.30;1.00
837;DHT22;400;53.550;9.932;2023-08-01T13:30:41;19.20;1.00
837;DHT22;400;53.550;9.932;2023-08-01T13:33:08;19.20;1.00
837;DHT22;400;53.550;9.932;2023-08-01T13:35:36;19.20;1.00
837;DHT22;400;53.550;9.932;2023-08-01T13:38:06;19.30;1.00
837;DHT22;400;53.550;9.932;2023-08-01T13:40:33;19.20;1.00
837;DHT22;400;53.550;9.932;2023-08-01T13:43:00;19.00;1.00
837;DHT22;400;53.550;9.932;2023-08-01T13:45:30;18.90;1.00
837;DHT22;400;53.550;9.932;2023-08-01T13:47:57;18.90;1.00
837;DHT22;400;53.550;9.932;2023-08-01T13:50:28;18.90;1.00
837;DHT22;400;53.550;9.932;2023-08-01T13:52:56;19.00;1.00
837;DHT22;400;53.550;9.932;2023-08-01T13:55:23;19.10;1.00
837;DHT22;400;53.550;9.932;2023-08-01T13:57:50;19.10;1.00
837;DHT22;400;53.550;9.932;2023-08-01T14:00:17;19.20;1.00
837;DHT22;400;53.550;9.932;2023-08-01T14:02:44;19.10;1.00
837;DHT22;400;53.550;9.932;2023-08-01T14:05:12;19.10;1.00
837;DHT22;400;53.550;9.932;2023-08-01T14:07:38;19.20;1.00
837;DHT22;400;53.550;9.932;2023-08-01T14:10:07;18.90;1.00
837;DHT22;400;53.550;9.932;2023-08-01T14:12:34;18.60;1.00
837;DHT22;400;53.550;9.932;2023-08-01T14:15:01;18.40;1.00
837;DHT22;400;53.550;9.932;2023-08-01T14:17:30;18.40;1.00
837;DHT22;400;53.550;9.932;2023-08-01T14:19:58;18.10;1.00
837;DHT22;400;53.550;9.932;2023-08-01T14:22:25;18.00;1.00
837;DHT22;400;53.550;9.932;2023-08-01T14:24:53;18.00;1.00
837;DHT22;400;53.550;9.932;2023-08-01T14:27:22;17.90;1.00
837;DHT22;400;53.550;9.932;2023-08-01T14:29:51;17.90;1.00
837;DHT22;400;53.550;9.932;2023-08-01T14:32:22;18.00;1.00
837;DHT22;400;53.550;9.932;2023-08-01T14:34:50;18.00;1.00
837;DHT22;400;53.550;9.932;2023-08-01T14:37:17;18.00;1.00
837;DHT22;400;53.550;9.932;2023-08-01T14:39:44;18.10;1.00
837;DHT22;400;53.550;9.932;2023-08-01T14:42:11;18.00;1.00
837;DHT22;400;53.550;9.932;2023-08-01T14:44:42;18.20;1.00
837;DHT22;400;53.550;9.932;2023-08-01T14:47:09;18.20;1.00
837;DHT22;400;53.550;9.932;2023-08-01T14:49:37;18.30;1.00
837;DHT22;400;53.550;9.932;2023-08-01T14:52:05;18.40;1.00
837;DHT22;400;53.550;9.932;2023-08-01T14:54:32;18.40;1.00
837;DHT22;400;53.550;9.932;2023-08-01T14:56:59;18.60;1.00
837;DHT22;400;53.550;9.932;2023-08-01T14:59:25;18.80;1.00
837;DHT22;400;53.550;9.932;2023-08-01T15:01:56;19.00;1.00
837;DHT22;400;53.550;9.932;2023-08-01T15:04:23;19.10;1.00
837;DHT22;400;53.550;9.932;2023-08-01T15:06:49;19.10;1.00
837;DHT22;400;53.550;9.932;2023-08-01T15:09:16;19.20;1.00
837;DHT22;400;53.550;9.932;2023-08-01T15:11:43;19.40;1.00
837;DHT22;400;53.550;9.932;2023-08-01T15:14:12;19.20;1.00
837;DHT22;400;53.550;9.932;2023-08-01T15:16:43;19.10;1.00
837;DHT22;400;53.550;9.932;2023-08-01T15:19:12;19.10;1.00
837;DHT22;400;53.550;9.932;2023-08-01T15:21:39;19.10;1.00
837;DHT22;400;53.550;9.932;2023-08-01T15:24:07;18.90;1.00
837;DHT22;400;53.550;9.932;2023-08-01T15:26:35;18.90;1.00
837;DHT22;400;53.550;9.932;2023-08-01T15:29:01;18.90;1.00
837;DHT22;400;53.550;9.932;2023-08-01T15:31:29;18.80;1.00
837;DHT22;400;53.550;9.932;2023-08-01T15:33:56;18.80;1.00
837;DHT22;400;53.550;9.932;2023-08-01T15:36:28;18.90;1.00
837;DHT22;400;53.550;9.932;2023-08-01T15:38:57;19.00;1.00
837;DHT22;400;53.550;9.932;2023-08-01T15:41:24;19.10;1.00
837;DHT22;400;53.550;9.932;2023-08-01T15:43:53;19.20;1.00
837;DHT22;400;53.550;9.932;2023-08-01T15:46:24;19.30;1.00
837;DHT22;400;53.550;9.932;2023-08-01T15:48:54;19.30;1.00
837;DHT22;400;53.550;9.932;2023-08-01T15:51:28;19.40;1.00
837;DHT22;400;53.550;9.932;2023-08-01T15:53:59;19.50;1.00
837;DHT22;400;53.550;9.932;2023-08-01T15:56:30;19.40;1.00
837;DHT22;400;53.550;9.932;2023-08-01T15:59:00;19.00;1.00
837;DHT22;400;53.550;9.932;2023-08-01T16:01:27;19.00;1.00
837;DHT22;400;53.550;9.932;2023-08-01T16:03:54;19.00;1.00
837;DHT22;400;53.550;9.932;2023-08-01T16:06:23;19.20;1.00
837;DHT22;400;53.550;9.932;2023-08-01T16:08:57;19.50;1.00
837;DHT22;400;53.550;9.932;2023-08-01T16:11:26;19.50;1.00
837;DHT22;400;53.550;9.932;2023-08-01T16:13:54;19.50;1.00
837;DHT22;400;53.550;9.932;2023-08-01T16:16:23;19.50;1.00
837;DHT22;400;53.550;9.932;2023-08-01T16:18:49;19.80;1.00
837;DHT22;400;53.550;9.932;2023-08-01T16:21:16;20.50;1.00
837;DHT22;400;53.550;9.932;2023-08-01T16:23:44;21.10;1.00
837;DHT22;400;53.550;9.932;2023-08-01T16:26:14;21.10;1.00
837;DHT22;400;53.550;9.932;2023-08-01T16:28:41;21.00;1.00
837;DHT22;400;53.550;9.932;2023-08-01T16:31:08;20.80;1.00
837;DHT22;400;53.550;9.932;2023-08-01T16:33:35;20.70;1.00
837;DHT22;400;53.550;9.932;2023-08-01T16:36:07;20.50;1.00
837;DHT22;400;53.550;9.932;2023-08-01T16:38:40;20.30;1.00
837;DHT22;400;53.550;9.932;2023-08-01T16:41:16;20.10;1.00
837;DHT22;400;53.550;9.932;2023-08-01T16:43:48;20.00;1.00
837;DHT22;400;53.550;9.932;2023-08-01T16:46:17;20.70;1.00
837;DHT22;400;53.550;9.932;2023-08-01T16:48:48;21.80;1.00
837;DHT22;400;53.550;9.932;2023-08-01T16:51:18;22.70;1.00
837;DHT22;400;53.550;9.932;2023-08-01T16:53:46;23.40;1.00
837;DHT22;400;53.550;9.932;2023-08-01T16:56:15;22.80;1.00